Список аэропортов
Фактическая погода:

21 апреля, 19:00
Температура: +8°C (+5.1*)
Ветер: восточный 5 м/с
Давление: *765 мм
разорв. обл.
1290 м
Время (МСК)Темп. СВетерВлажностьДавлениеОблачностьОсадки
15:00+10В, 7 м/с46%1018 гПаоблачно
16:00+10В, 7 м/с46%1019 гПаоблачно
17:00+10В, 6 м/с46%1019 гПаоблачно
18:00+10СВ, 6 м/с48%1019 гПаоблачно
19:00+9СВ, 6 м/с48%1020 гПаоблачно
20:00+9СВ, 6 м/с49%1020 гПаоблачно
21:00+9СВ, 6 м/с49%1020 гПаоблачно
22:00+9СВ, 7 м/с50%1020 гПаоблачно
23:00+8В, 7 м/с52%1020 гПаоблачно
22 апреля
00:00+7В, 6 м/с52%1020 гПас прояснениями
01:00+6В, 6 м/с53%1020 гПас прояснениями
02:00+5В, 5 м/с55%1020 гПас прояснениями
03:00+4В, 5 м/с59%1020 гПас прояснениями
04:00+3В, 4 м/с65%1021 гПас прояснениями
05:00+2В, 3 м/с71%1021 гПас прояснениями
06:00+2СВ, 3 м/с74%1021 гПас прояснениями
07:00+4СВ, 5 м/с68%1021 гПас прояснениями
08:00+6СВ, 6 м/с61%1020 гПас прояснениями
09:00+8В, 7 м/с53%1020 гПаоблачно
10:00+10СВ, 8 м/с49%1020 гПаоблачно
11:00+11СВ, 8 м/с44%1019 гПаоблачно
12:00+12В, 8 м/с40%1019 гПас прояснениями
13:00+13В, 8 м/с38%1019 гПамалооблачно
14:00+14В, 8 м/с36%1018 гПамалооблачно
15:00+14В, 8 м/с35%1018 гПас прояснениями
16:00+14СВ, 7 м/с34%1018 гПас прояснениями
17:00+14СВ, 7 м/с34%1019 гПас прояснениями
18:00+13СВ, 7 м/с35%1019 гПас прояснениями
19:00+12В, 6 м/с36%1020 гПас прояснениями
20:00+12В, 5 м/с39%1021 гПаоблачно
21:00+11В, 4 м/с41%1022 гПаоблачно
22:00+10В, 5 м/с41%1023 гПамалооблачно
23:00+9В, 5 м/с43%1023 гПас прояснениями
23 апреля
00:00+7В, 4 м/с46%1024 гПас прояснениями
01:00+6В, 3 м/с50%1024 гПаоблачно
02:00+5В, 2 м/с56%1024 гПаоблачно
03:00+3В, 1 м/с69%1025 гПаясно
04:00+2СВ, 1 м/с75%1025 гПаясно
05:00+1В, 1 м/с80%1026 гПаясно
06:00+1В, 1 м/с82%1026 гПаясно
07:00+4В, 1 м/с68%1026 гПаясно
08:00+8В, 3 м/с48%1025 гПаясно
09:00+10В, 4 м/с38%1025 гПаясно
10:00+12СВ, 4 м/с32%1025 гПаясно
11:00+13СВ, 5 м/с30%1025 гПаясно
12:00+14СВ, 4 м/с28%1025 гПаясно
13:00+15СВ, 4 м/с26%1025 гПаясно
14:00+16СВ, 4 м/с24%1025 гПаясно
15:00+16СВ, 3 м/с23%1025 гПаясно